Whitharral, Texas
Current Conditions -  °F | °C
As of 6:53 PM on Thursday 27 Nov 2014 (Local Time) from KLBB Reporting Station
Few Clouds Few Clouds  
Wind Chill: 45°   Ceiling: Unl
Heat Index: 49°   Visibility: 10mi
Dew Point: 31°   Wind: 10mph
Humidity: 50%   Direction: 180°S
Pressure: 30.28"   Gusts: NA
Location:  33.74°N, 102.33°W
Report Text: KLBB 280053Z 18009KT 10SM FEW270 09/M01 A3028 RMK AO2 SLP251 T00941006
Loading
Personal Weather Stations






























Interactive Weather Map New forecast layout! Learn more

10-Day Weather Forecast

Advertisements
Track Severe Weather on mobile